VOE70ZZ LFMN-LFST
Flight info
| Callsign | VOE70ZZ |
|---|---|
| Flight time | N/A |
| Altitude | 32000 |
| Route | IRMAR DCT KINES DCT VANAS DCT MOBLO DCT UBIMA DCT GILIR/N0446F280 DCT PENDU DCT LUL |
| Aircraft | A320/M-SDE3FGHIRWY/LB1 |
Departure
| Time | 2026-05-06 17:41 |
|---|---|
| Airport | Nice-Côte d'Azur Airport (LFMN) |
Arrival
| Time | N/A |
|---|---|
| Airport | Strasbourg Airport (LFST) |
| Time | Latitude | Longitude | Altitude | Speed | Heading |
|---|---|---|---|---|---|
| 2026-05-06 17:23 | 43.66227 | 7.20666 | 21 ft | 0 kts | 261° |
| 2026-05-06 17:28 | 43.66228 | 7.20677 | 23 ft | 4 kts | 261° |
| 2026-05-06 17:28 | 43.66232 | 7.20713 | 23 ft | 3 kts | 261° |
| 2026-05-06 17:29 | 43.66237 | 7.20742 | 22 ft | 4 kts | 237° |
| 2026-05-06 17:29 | 43.66255 | 7.20760 | 22 ft | 4 kts | 178° |
| 2026-05-06 17:29 | 43.66276 | 7.20757 | 22 ft | 1 kts | 171° |
| 2026-05-06 17:29 | 43.66276 | 7.20756 | 22 ft | 0 kts | 171° |
| 2026-05-06 17:31 | 43.66273 | 7.20757 | 21 ft | 3 kts | 171° |
| 2026-05-06 17:32 | 43.66228 | 7.20767 | 24 ft | 8 kts | 171° |
| 2026-05-06 17:32 | 43.66165 | 7.20781 | 23 ft | 10 kts | 171° |
| 2026-05-06 17:32 | 43.66090 | 7.20798 | 21 ft | 12 kts | 171° |
| 2026-05-06 17:32 | 43.65996 | 7.20819 | 23 ft | 17 kts | 171° |
| 2026-05-06 17:33 | 43.65941 | 7.20831 | 21 ft | 20 kts | 171° |
| 2026-05-06 17:33 | 43.65834 | 7.20855 | 21 ft | 14 kts | 171° |
| 2026-05-06 17:33 | 43.65813 | 7.20947 | 21 ft | 11 kts | 57° |
| 2026-05-06 17:33 | 43.65870 | 7.21030 | 21 ft | 16 kts | 45° |
| 2026-05-06 17:34 | 43.65952 | 7.21143 | 21 ft | 16 kts | 45° |
| 2026-05-06 17:34 | 43.66028 | 7.21248 | 21 ft | 15 kts | 45° |
| 2026-05-06 17:34 | 43.66097 | 7.21342 | 21 ft | 13 kts | 45° |
| 2026-05-06 17:34 | 43.66159 | 7.21428 | 21 ft | 12 kts | 45° |
| 2026-05-06 17:35 | 43.66214 | 7.21504 | 21 ft | 11 kts | 45° |
| 2026-05-06 17:35 | 43.66290 | 7.21608 | 22 ft | 16 kts | 45° |
| 2026-05-06 17:35 | 43.66367 | 7.21713 | 21 ft | 15 kts | 45° |
| 2026-05-06 17:36 | 43.66534 | 7.21943 | 21 ft | 24 kts | 45° |
| 2026-05-06 17:36 | 43.66647 | 7.22099 | 21 ft | 22 kts | 45° |
| 2026-05-06 17:36 | 43.66746 | 7.22235 | 21 ft | 16 kts | 45° |
| 2026-05-06 17:36 | 43.66812 | 7.22330 | 21 ft | 10 kts | 56° |
| 2026-05-06 17:37 | 43.66803 | 7.22410 | 23 ft | 7 kts | 128° |
| 2026-05-06 17:37 | 43.66798 | 7.22416 | 21 ft | 0 kts | 135° |
| 2026-05-06 17:38 | 43.66772 | 7.22452 | 20 ft | 13 kts | 135° |
| 2026-05-06 17:38 | 43.66708 | 7.22542 | 20 ft | 12 kts | 135° |
| 2026-05-06 17:38 | 43.66655 | 7.22615 | 21 ft | 10 kts | 135° |
| 2026-05-06 17:39 | 43.66611 | 7.22674 | 21 ft | 8 kts | 135° |
| 2026-05-06 17:39 | 43.66576 | 7.22722 | 21 ft | 6 kts | 135° |
| 2026-05-06 17:39 | 43.66551 | 7.22756 | 22 ft | 4 kts | 135° |
| 2026-05-06 17:39 | 43.66535 | 7.22774 | 22 ft | 2 kts | 149° |
| 2026-05-06 17:40 | 43.66519 | 7.22773 | 22 ft | 5 kts | 193° |
| 2026-05-06 17:40 | 43.66484 | 7.22737 | 22 ft | 7 kts | 224° |
| 2026-05-06 17:40 | 43.66481 | 7.22733 | 22 ft | 5 kts | 224° |
| 2026-05-06 17:40 | 43.66277 | 7.22453 | 24 ft | 75 kts | 225° |
| 2026-05-06 17:41 | 43.65762 | 7.21746 | 23 ft | 131 kts | 225° |
| 2026-05-06 17:41 | 43.65029 | 7.20741 | 280 ft | 153 kts | 225° |
| 2026-05-06 17:41 | 43.64248 | 7.19695 | 954 ft | 155 kts | 224° |
| 2026-05-06 17:41 | 43.63488 | 7.18630 | 1675 ft | 156 kts | 226° |
| 2026-05-06 17:42 | 43.62716 | 7.17554 | 2309 ft | 159 kts | 227° |
| 2026-05-06 17:42 | 43.61935 | 7.16488 | 2875 ft | 164 kts | 227° |
| 2026-05-06 17:42 | 43.60968 | 7.15456 | 3178 ft | 189 kts | 204° |
| 2026-05-06 17:42 | 43.59578 | 7.15400 | 3431 ft | 224 kts | 165° |
| 2026-05-06 17:43 | 43.58138 | 7.16393 | 4066 ft | 234 kts | 155° |
| 2026-05-06 17:43 | 43.56675 | 7.17530 | 4880 ft | 235 kts | 160° |
| 2026-05-06 17:43 | 43.55145 | 7.18115 | 5603 ft | 230 kts | 179° |
| 2026-05-06 17:43 | 43.53573 | 7.17897 | 6385 ft | 226 kts | 199° |
| 2026-05-06 17:44 | 43.52122 | 7.17168 | 7182 ft | 219 kts | 218° |
| 2026-05-06 17:44 | 43.51123 | 7.15625 | 7849 ft | 218 kts | 248° |
| 2026-05-06 17:44 | 43.50865 | 7.13578 | 8512 ft | 223 kts | 276° |
| 2026-05-06 17:44 | 43.51243 | 7.11516 | 9331 ft | 223 kts | 283° |
| 2026-05-06 17:45 | 43.51659 | 7.09443 | 10040 ft | 225 kts | 282° |
| 2026-05-06 17:45 | 43.52094 | 7.07362 | 10715 ft | 228 kts | 289° |
| 2026-05-06 17:45 | 43.52962 | 7.05496 | 11366 ft | 238 kts | 311° |
| 2026-05-06 17:45 | 43.54404 | 7.04192 | 11719 ft | 265 kts | 336° |
| 2026-05-06 17:46 | 43.56306 | 7.03626 | 11958 ft | 292 kts | 346° |
| 2026-05-06 17:46 | 43.58388 | 7.03121 | 12169 ft | 315 kts | 346° |
| 2026-05-06 17:46 | 43.60671 | 7.02571 | 12317 ft | 339 kts | 346° |
| 2026-05-06 17:46 | 43.63062 | 7.01990 | 12452 ft | 361 kts | 347° |
| 2026-05-06 17:47 | 43.65584 | 7.01369 | 12842 ft | 373 kts | 347° |
| 2026-05-06 17:47 | 43.68163 | 7.00733 | 13470 ft | 378 kts | 347° |
| 2026-05-06 17:47 | 43.70764 | 7.00088 | 14069 ft | 382 kts | 346° |
| 2026-05-06 17:47 | 43.72539 | 6.99643 | 14486 ft | 384 kts | 346° |
| 2026-05-06 17:48 | 43.75186 | 6.98975 | 15018 ft | 389 kts | 346° |
| 2026-05-06 17:48 | 43.77861 | 6.98293 | 15664 ft | 391 kts | 346° |
| 2026-05-06 17:48 | 43.80548 | 6.97611 | 16303 ft | 394 kts | 346° |
| 2026-05-06 17:48 | 43.83254 | 6.96928 | 16917 ft | 397 kts | 346° |
| 2026-05-06 17:49 | 43.85989 | 6.96241 | 17522 ft | 400 kts | 346° |
| 2026-05-06 17:49 | 43.88738 | 6.95545 | 18123 ft | 403 kts | 346° |
| 2026-05-06 17:49 | 43.91515 | 6.94840 | 18622 ft | 407 kts | 345° |
| 2026-05-06 17:49 | 43.94325 | 6.94125 | 19070 ft | 412 kts | 345° |
| 2026-05-06 17:50 | 43.97168 | 6.93404 | 19510 ft | 417 kts | 345° |
| 2026-05-06 17:50 | 44.00036 | 6.92676 | 19985 ft | 422 kts | 344° |
| 2026-05-06 17:50 | 44.02941 | 6.91939 | 20456 ft | 426 kts | 344° |
| 2026-05-06 17:50 | 44.05872 | 6.91198 | 20891 ft | 431 kts | 343° |
| 2026-05-06 17:51 | 44.08841 | 6.90445 | 21297 ft | 436 kts | 343° |
| 2026-05-06 17:51 | 44.11836 | 6.89682 | 21692 ft | 440 kts | 343° |
| 2026-05-06 17:51 | 44.14861 | 6.88920 | 22036 ft | 444 kts | 344° |
| 2026-05-06 17:51 | 44.17937 | 6.88287 | 22456 ft | 449 kts | 346° |
| 2026-05-06 17:52 | 44.21057 | 6.87788 | 22787 ft | 454 kts | 347° |
| 2026-05-06 17:52 | 44.24255 | 6.87363 | 23225 ft | 456 kts | 348° |
| 2026-05-06 17:52 | 44.27443 | 6.86969 | 23518 ft | 459 kts | 348° |
| 2026-05-06 17:52 | 44.30670 | 6.86551 | 23777 ft | 462 kts | 348° |
| 2026-05-06 17:53 | 44.33881 | 6.86110 | 24092 ft | 464 kts | 347° |
| 2026-05-06 17:53 | 44.37109 | 6.85641 | 24421 ft | 467 kts | 347° |
| 2026-05-06 17:53 | 44.40349 | 6.85152 | 24727 ft | 470 kts | 347° |
| 2026-05-06 17:53 | 44.43609 | 6.84643 | 25020 ft | 471 kts | 347° |
| 2026-05-06 17:54 | 44.46875 | 6.84129 | 25414 ft | 472 kts | 348° |
| 2026-05-06 17:54 | 44.50174 | 6.83617 | 25869 ft | 470 kts | 348° |
| 2026-05-06 17:54 | 44.53403 | 6.83117 | 26219 ft | 472 kts | 348° |
| 2026-05-06 17:54 | 44.56705 | 6.82609 | 26509 ft | 474 kts | 348° |
| 2026-05-06 17:55 | 44.60002 | 6.82106 | 26766 ft | 477 kts | 348° |